SILO ALERT LOG


Silo ID Alert Type Alert Message Silo Type Points Depth (mm) Strength Temperature (°C) Humidity (%) Height (mm) Volume (㎥) Weight (t) Flag Time
WJWJR05 Humidity 습도센서 측정값이 80% 초과 58 7810 2519 23.9 91.6 -89 -10.179 0 0 2026-09-01 21:25:48.000
WJWJR01 Humidity 습도센서 측정값이 80% 초과 79 7710 1089 24.3 92.3 -70 -7.917 0 0 2026-09-01 17:25:56.000
WJWJR05 Humidity 습도센서 측정값이 80% 초과 59 7790 2422 24.5 91.1 -70 -7.917 0 0 2026-09-01 17:25:46.000
WJWJR01 Humidity 습도센서 측정값이 80% 초과 81 7690 1063 24.6 94.1 -50 -5.655 0 0 2026-09-01 13:25:58.000
WJWJR05 Humidity 습도센서 측정값이 80% 초과 54 7780 2478 24.9 92.6 -60 -6.786 0 0 2026-09-01 13:25:49.000
WJWJR01 Humidity 습도센서 측정값이 80% 초과 84 7720 1095 23.5 94.3 -80 -9.048 0 0 2026-09-01 09:25:54.000
WJWJR05 Humidity 습도센서 측정값이 80% 초과 58 7710 2445 23.8 92 9 1.131 0.715 0 2026-09-01 09:25:46.000
WJWJR01 Humidity 습도센서 측정값이 80% 초과 75 7690 1094 23.3 94.2 -50 -5.655 0 0 2026-09-01 05:25:58.000
WJWJR05 Humidity 습도센서 측정값이 80% 초과 55 7840 2423 23.8 91.6 -120 -13.572 0 0 2026-09-01 05:25:42.000
WJWJR01 Humidity 습도센서 측정값이 80% 초과 77 7690 1095 23.6 93.8 -50 -5.655 0 0 2026-09-01 01:26:00.000
WJWJR05 Humidity 습도센서 측정값이 80% 초과 56 7720 2450 24 91.1 0 0 0 0 2026-09-01 01:25:47.000
WJWJR01 Humidity 습도센서 측정값이 80% 초과 77 7660 1088 24 92.8 -20 -2.262 0 0 2026-08-31 21:25:57.000
WJWJR05 Humidity 습도센서 측정값이 80% 초과 56 7760 2484 24.4 90.1 -40 -4.524 0 0 2026-08-31 21:25:43.000
WJWJR01 Humidity 습도센서 측정값이 80% 초과 77 7670 1098 24.6 90.7 -30 -3.393 0 0 2026-08-31 17:25:59.000
WJWJR05 Humidity 습도센서 측정값이 80% 초과 60 7820 2461 24.9 88.7 -100 -11.31 0 0 2026-08-31 17:25:46.000
WJWJR01 Humidity 습도센서 측정값이 80% 초과 73 7650 1114 24.8 90.8 -10 -1.131 0 0 2026-08-31 13:26:02.000
WJWJR05 Humidity 습도센서 측정값이 80% 초과 56 7800 2461 25 89 -80 -9.048 0 0 2026-08-31 13:25:45.000
WJWJR01 Humidity 습도센서 측정값이 80% 초과 76 7640 1105 24.4 92.3 0 0 0 0 2026-08-31 09:25:55.000
WJWJR05 Humidity 습도센서 측정값이 80% 초과 55 7790 2420 24.6 89.8 -70 -7.917 0 0 2026-08-31 09:25:47.000
WJWJR01 Humidity 습도센서 측정값이 80% 초과 76 7650 1092 24.4 91.7 -10 -1.131 0 0 2026-08-31 05:25:56.000

[첫 페이지] [1] 2 [3] [4] [5] [6] [마지막 페이지]